Norfolk, Virginia
Traffic Map
Current Weather Conditions
Norfolk, Virginia
Clear
Clear
-3°
Feels Like: -9°
Wind Chill: -9° Ceiling: Unl
Heat Index: -3° Visibility: 10mi
Dew Point: -10° Wind: 12mph
Humidity: 60% Direction: 350° (N)
Pressure: 30.46in Gusts: 0mph
Raw Report DataKORF 062151Z 35010KT 10SM CLR M03/M10 A3046 RMK AO2 SLP312 T10331100
Traffic Incident Summary
Active as of:
Severity:
Category:
InformationThere was an issue retrieving the traffic information for this location. Please try a different location or try again shortly.
Advertisements
Track Severe Weather on mobile